createdAt,value
2023-02-19T00:00:55.615Z,46.71
2023-02-19T00:03:56.335Z,46.74
2023-02-19T00:06:50.894Z,46.65
2023-02-19T00:09:44.752Z,46.60
2023-02-19T00:12:38.703Z,46.25
2023-02-19T00:15:35.174Z,46.10
2023-02-19T00:18:29.442Z,46.44
2023-02-19T00:21:23.894Z,46.26
2023-02-19T00:24:18.612Z,46.23
2023-02-19T00:27:12.719Z,46.36
2023-02-19T00:30:07.074Z,46.30
2023-02-19T00:33:01.092Z,46.33
2023-02-19T00:35:55.471Z,46.17
2023-02-19T00:38:49.973Z,46.06
2023-02-19T00:41:44.065Z,46.09
2023-02-19T00:44:38.059Z,46.25
2023-02-19T00:47:32.052Z,46.35
2023-02-19T00:50:26.916Z,46.60
2023-02-19T00:53:20.977Z,46.42
2023-02-19T00:56:15.051Z,46.86
2023-02-19T00:59:09.099Z,46.43
2023-02-19T01:02:02.909Z,46.71
2023-02-19T01:04:57.297Z,46.55
2023-02-19T01:07:51.768Z,46.69
2023-02-19T01:10:45.794Z,46.91
2023-02-19T01:13:40.544Z,46.22
2023-02-19T01:16:34.450Z,46.72
2023-02-19T01:19:28.468Z,46.62
2023-02-19T01:22:22.454Z,46.46
2023-02-19T01:25:16.233Z,46.65
2023-02-19T01:28:12.383Z,46.49
2023-02-19T01:31:09.691Z,46.78
2023-02-19T01:34:03.825Z,46.70
2023-02-19T01:36:57.514Z,46.90
2023-02-19T01:39:51.760Z,46.48
2023-02-19T01:42:48.183Z,46.55
2023-02-19T01:45:46.623Z,46.57
2023-02-19T01:48:42.232Z,46.57
2023-02-19T01:51:37.552Z,46.51
2023-02-19T01:54:35.875Z,46.75
2023-02-19T01:57:34.255Z,46.88
2023-02-19T02:00:29.112Z,46.70
2023-02-19T02:03:25.603Z,46.74
2023-02-19T02:06:24.976Z,46.76
2023-02-19T02:09:38.096Z,46.74
2023-02-19T02:12:31.805Z,46.66
2023-02-19T02:15:30.724Z,46.80
2023-02-19T02:18:35.908Z,46.95
2023-02-19T02:21:53.986Z,46.98
2023-02-19T02:25:17.623Z,46.90
2023-02-19T02:28:34.924Z,47.03
2023-02-19T02:31:42.475Z,46.90
2023-02-19T02:34:47.921Z,46.90
2023-02-19T02:37:40.062Z,47.31
2023-02-19T02:40:34.966Z,47.34
2023-02-19T02:43:29.813Z,47.16
2023-02-19T02:46:46.188Z,47.28
2023-02-19T02:50:00.768Z,47.11
2023-02-19T02:53:17.911Z,47.03
2023-02-19T02:56:17.619Z,47.36
2023-02-19T02:59:14.666Z,47.34
2023-02-19T03:02:18.590Z,47.08
2023-02-19T03:05:36.196Z,47.08
2023-02-19T03:08:52.628Z,47.40
2023-02-19T03:12:05.224Z,47.35
2023-02-19T03:15:21.477Z,47.27
2023-02-19T03:18:35.905Z,47.32
2023-02-19T03:21:33.833Z,47.20
2023-02-19T03:24:54.820Z,47.56
2023-02-19T03:27:52.149Z,47.36
2023-02-19T03:30:51.901Z,47.49
2023-02-19T03:33:48.526Z,47.28
2023-02-19T03:37:08.637Z,47.39
2023-02-19T03:40:02.582Z,47.45
2023-02-19T03:43:05.504Z,47.71
2023-02-19T03:46:08.037Z,47.58
2023-02-19T03:49:10.226Z,47.35
2023-02-19T03:52:14.434Z,47.68
2023-02-19T03:55:16.534Z,47.68
2023-02-19T03:58:35.003Z,48.27
2023-02-19T04:01:35.562Z,47.98
2023-02-19T04:04:52.141Z,47.93
2023-02-19T04:07:40.034Z,47.64
2023-02-19T04:10:34.823Z,47.96
2023-02-19T04:13:32.006Z,48.03
2023-02-19T04:16:30.222Z,47.98
2023-02-19T04:19:28.405Z,47.73
2023-02-19T04:22:23.563Z,47.93
2023-02-19T04:25:17.950Z,48.01
2023-02-19T04:28:14.105Z,47.74
2023-02-19T04:31:08.637Z,47.74
2023-02-19T04:34:03.703Z,47.45
2023-02-19T04:36:57.407Z,47.67
2023-02-19T04:39:51.644Z,47.66
2023-02-19T04:42:45.392Z,47.64
2023-02-19T04:45:41.078Z,47.62
2023-02-19T04:48:34.969Z,47.50
2023-02-19T04:51:29.144Z,47.26
2023-02-19T04:54:23.012Z,47.49
2023-02-19T04:57:17.200Z,47.46
2023-02-19T05:00:14.286Z,47.46
2023-02-19T05:03:08.130Z,47.59
2023-02-19T05:06:05.141Z,47.41
2023-02-19T05:08:59.408Z,47.66
2023-02-19T05:11:53.301Z,47.48
2023-02-19T05:14:47.141Z,47.70
2023-02-19T05:17:33.528Z,47.99
2023-02-19T05:20:27.330Z,47.77
2023-02-19T05:23:21.627Z,47.78
2023-02-19T05:26:19.068Z,47.85
2023-02-19T05:29:13.078Z,47.65
2023-02-19T05:32:06.873Z,47.96
2023-02-19T05:35:00.704Z,48.52
2023-02-19T05:37:54.939Z,48.26
2023-02-19T05:40:49.673Z,48.05
2023-02-19T05:43:46.186Z,48.10
2023-02-19T05:46:40.135Z,48.69
2023-02-19T05:49:34.315Z,48.35
2023-02-19T05:52:28.522Z,48.00
2023-02-19T05:55:22.629Z,47.89
2023-02-19T05:58:16.825Z,48.03
2023-02-19T06:01:17.513Z,48.03
2023-02-19T06:04:11.657Z,47.89
2023-02-19T06:07:05.614Z,47.73
2023-02-19T06:09:59.844Z,47.96
2023-02-19T06:12:57.100Z,48.07
2023-02-19T06:15:51.080Z,47.98
2023-02-19T06:18:45.270Z,47.82
2023-02-19T06:21:39.126Z,47.77
2023-02-19T06:24:33.095Z,47.71
2023-02-19T06:27:27.135Z,48.13
2023-02-19T06:30:21.310Z,47.76
2023-02-19T06:33:15.616Z,48.47
2023-02-19T06:36:13.484Z,48.41
2023-02-19T06:39:08.744Z,48.68
2023-02-19T06:42:02.547Z,48.84
2023-02-19T06:44:56.374Z,48.69
2023-02-19T06:47:50.563Z,48.09
2023-02-19T06:50:44.629Z,48.71
2023-02-19T06:53:38.748Z,49.37
2023-02-19T06:56:34.279Z,49.39
2023-02-19T06:59:28.327Z,49.25
2023-02-19T07:02:22.719Z,49.39
2023-02-19T07:05:16.730Z,49.38
2023-02-19T07:08:10.982Z,49.43
2023-02-19T07:11:04.749Z,49.22
2023-02-19T07:14:02.136Z,49.27
2023-02-19T07:16:56.039Z,49.57
2023-02-19T07:19:49.923Z,49.57
2023-02-19T07:22:43.598Z,49.55
2023-02-19T07:25:38.462Z,49.41
2023-02-19T07:28:32.588Z,49.30
2023-02-19T07:31:27.774Z,49.83
2023-02-19T07:34:21.673Z,50.30
2023-02-19T07:37:15.294Z,49.90
2023-02-19T07:40:10.898Z,51.58
2023-02-19T07:43:05.081Z,50.06
2023-02-19T07:45:59.054Z,52.09
2023-02-19T07:48:35.802Z,51.13
2023-02-19T07:51:29.617Z,49.75
2023-02-19T07:54:23.735Z,49.97
2023-02-19T07:57:00.794Z,50.46
2023-02-19T07:59:54.442Z,49.89
2023-02-19T08:03:03.657Z,50.08
2023-02-19T08:05:58.669Z,50.06
2023-02-19T08:08:52.461Z,49.98
2023-02-19T08:12:03.976Z,50.25
2023-02-19T08:14:57.932Z,50.36
2023-02-19T08:17:51.712Z,50.52
2023-02-19T08:20:46.115Z,50.56
2023-02-19T08:23:40.920Z,50.69
2023-02-19T08:26:36.910Z,50.70
2023-02-19T08:29:30.773Z,50.62
2023-02-19T08:32:24.572Z,50.65
2023-02-19T08:35:18.506Z,50.61
2023-02-19T08:38:14.237Z,50.82
2023-02-19T08:41:11.857Z,50.67
2023-02-19T08:44:06.345Z,50.74
2023-02-19T08:47:00.531Z,50.76
2023-02-19T08:49:54.570Z,50.69
2023-02-19T08:52:48.233Z,50.78
2023-02-19T08:55:42.483Z,50.50
2023-02-19T08:58:37.473Z,50.62
2023-02-19T09:01:31.474Z,50.66
2023-02-19T09:04:25.448Z,50.65
2023-02-19T09:07:20.333Z,50.62
2023-02-19T09:10:16.448Z,50.61
2023-02-19T09:13:10.396Z,50.67
2023-02-19T09:16:05.489Z,50.66
2023-02-19T09:18:59.363Z,50.52
2023-02-19T09:21:53.248Z,50.37
2023-02-19T09:24:35.558Z,50.50
2023-02-19T09:27:31.957Z,50.37
2023-02-19T09:30:26.479Z,50.28
2023-02-19T09:33:20.389Z,50.17
2023-02-19T09:36:15.172Z,50.33
2023-02-19T09:39:12.552Z,50.30
2023-02-19T09:42:17.335Z,50.42
2023-02-19T09:45:21.011Z,50.29
2023-02-19T09:48:15.089Z,50.18
2023-02-19T09:51:12.256Z,50.29
2023-02-19T09:54:09.026Z,50.11
2023-02-19T09:57:05.766Z,50.14
2023-02-19T10:00:10.394Z,50.04
2023-02-19T10:03:11.928Z,50.66
2023-02-19T10:06:15.358Z,50.83
2023-02-19T10:09:26.677Z,50.16
2023-02-19T10:12:28.016Z,49.83
2023-02-19T10:15:27.919Z,49.89
2023-02-19T10:18:25.562Z,49.63
2023-02-19T10:21:21.507Z,51.02
2023-02-19T10:24:25.801Z,49.98
2023-02-19T10:27:20.202Z,50.16
2023-02-19T10:30:22.376Z,49.96
2023-02-19T10:33:17.857Z,48.49
2023-02-19T10:36:37.212Z,48.04
2023-02-19T10:39:46.063Z,48.37
2023-02-19T10:42:48.632Z,47.93
2023-02-19T10:46:06.152Z,47.60
2023-02-19T10:49:02.451Z,47.58
2023-02-19T10:51:57.754Z,47.41
2023-02-19T10:54:57.259Z,47.44
2023-02-19T10:57:51.446Z,47.34
2023-02-19T11:00:45.662Z,47.60
2023-02-19T11:03:40.785Z,47.41
2023-02-19T11:06:35.150Z,47.38
2023-02-19T11:09:35.960Z,47.25
2023-02-19T11:12:33.483Z,47.16
2023-02-19T11:15:32.149Z,47.46
2023-02-19T11:18:29.947Z,47.14
2023-02-19T11:21:33.516Z,46.62
2023-02-19T11:24:35.173Z,46.77
2023-02-19T11:27:29.202Z,46.62
2023-02-19T11:30:43.967Z,47.14
2023-02-19T11:33:44.554Z,47.31
2023-02-19T11:36:40.577Z,46.85
2023-02-19T11:39:35.773Z,46.50
2023-02-19T11:42:48.368Z,46.71
2023-02-19T11:45:45.489Z,46.90
2023-02-19T11:49:03.208Z,46.59
2023-02-19T11:52:14.157Z,46.82
2023-02-19T11:55:19.034Z,46.63
2023-02-19T11:58:41.140Z,46.74
2023-02-19T12:02:03.683Z,46.53
2023-02-19T12:05:36.894Z,46.61
2023-02-19T12:09:10.863Z,46.38
2023-02-19T12:12:24.364Z,46.35
2023-02-19T12:15:45.965Z,46.45
2023-02-19T12:19:11.771Z,46.08
2023-02-19T12:22:31.186Z,46.14
2023-02-19T12:25:54.658Z,45.61
2023-02-19T12:29:22.322Z,45.53
2023-02-19T12:32:37.404Z,45.60
2023-02-19T12:35:47.489Z,44.92
2023-02-19T12:38:49.238Z,44.89
2023-02-19T12:41:54.136Z,45.45
2023-02-19T12:44:52.681Z,44.78
2023-02-19T12:47:58.659Z,44.76
2023-02-19T12:51:00.993Z,44.70
2023-02-19T12:53:56.316Z,45.11
2023-02-19T12:56:56.570Z,44.69
2023-02-19T13:00:00.306Z,44.06
2023-02-19T13:02:51.641Z,44.66
2023-02-19T13:05:52.011Z,44.44
2023-02-19T13:09:05.826Z,43.89
2023-02-19T13:12:10.941Z,44.04
2023-02-19T13:15:09.106Z,44.14
2023-02-19T13:18:04.644Z,44.23
2023-02-19T13:20:59.262Z,44.84
2023-02-19T13:24:03.375Z,44.54
2023-02-19T13:27:19.886Z,44.91
2023-02-19T13:30:38.631Z,44.73
2023-02-19T13:33:56.520Z,44.73
2023-02-19T13:36:51.222Z,44.60
2023-02-19T13:39:52.424Z,44.77
2023-02-19T13:42:55.589Z,44.46
2023-02-19T13:45:55.232Z,44.31
2023-02-19T13:48:49.710Z,44.22
2023-02-19T13:51:53.677Z,43.93
2023-02-19T13:54:45.910Z,44.25
2023-02-19T13:57:41.920Z,44.17
2023-02-19T14:00:53.837Z,44.18
2023-02-19T14:04:07.977Z,43.95
2023-02-19T14:07:48.972Z,43.99
2023-02-19T14:11:05.469Z,43.74
2023-02-19T14:14:27.539Z,43.95
2023-02-19T14:17:39.267Z,43.92
2023-02-19T14:20:46.840Z,43.90
2023-02-19T14:23:42.634Z,43.75
2023-02-19T14:26:39.921Z,43.64
2023-02-19T14:29:33.938Z,43.70
2023-02-19T14:32:28.278Z,42.52
2023-02-19T14:35:26.626Z,43.43
2023-02-19T14:38:27.082Z,43.45
2023-02-19T14:41:23.341Z,43.07
2023-02-19T14:44:23.361Z,42.91
2023-02-19T14:47:21.324Z,43.17
2023-02-19T14:50:22.264Z,42.99
2023-02-19T14:53:20.214Z,42.05
2023-02-19T14:56:26.368Z,41.19
2023-02-19T14:59:30.353Z,41.51
2023-02-19T15:02:26.170Z,42.04
2023-02-19T15:05:24.552Z,41.68
2023-02-19T15:08:28.190Z,42.08
2023-02-19T15:11:44.232Z,41.59
2023-02-19T15:14:40.929Z,41.95
2023-02-19T15:17:38.479Z,42.49
2023-02-19T15:20:35.786Z,42.43
2023-02-19T15:23:35.844Z,42.37
2023-02-19T15:26:36.409Z,42.66
2023-02-19T15:29:31.456Z,42.35
2023-02-19T15:32:27.435Z,42.06
2023-02-19T15:35:25.222Z,42.12
2023-02-19T15:38:19.595Z,41.91
2023-02-19T15:41:24.082Z,42.51
2023-02-19T15:44:31.670Z,42.13
2023-02-19T15:47:35.382Z,42.09
2023-02-19T15:50:32.833Z,42.37
2023-02-19T15:53:29.584Z,42.13
2023-02-19T15:56:29.580Z,41.76
2023-02-19T15:59:31.885Z,42.04
2023-02-19T16:02:27.707Z,41.84
2023-02-19T16:05:30.889Z,41.85
2023-02-19T16:08:46.012Z,41.90
2023-02-19T16:11:49.452Z,41.65
2023-02-19T16:14:43.425Z,41.69
2023-02-19T16:17:37.643Z,41.66
2023-02-19T16:20:34.585Z,41.65
2023-02-19T16:23:29.140Z,41.49
2023-02-19T16:26:24.055Z,41.21
2023-02-19T16:29:25.273Z,41.43
2023-02-19T16:32:20.493Z,41.54
2023-02-19T16:35:40.769Z,41.15
2023-02-19T16:38:34.666Z,41.20
2023-02-19T16:41:28.630Z,39.09
2023-02-19T16:44:37.486Z,41.02
2023-02-19T16:47:38.119Z,41.90
2023-02-19T16:50:32.327Z,41.08
2023-02-19T16:53:28.995Z,41.88
2023-02-19T16:56:25.435Z,41.15
2023-02-19T16:59:19.464Z,40.50
2023-02-19T17:02:20.845Z,40.55
2023-02-19T17:05:15.002Z,40.82
2023-02-19T17:08:26.415Z,41.33
2023-02-19T17:11:21.736Z,41.25
2023-02-19T17:14:15.666Z,41.47
2023-02-19T17:17:09.797Z,41.47
2023-02-19T17:20:03.863Z,41.50
2023-02-19T17:22:57.896Z,41.30
2023-02-19T17:25:51.731Z,41.42
2023-02-19T17:28:45.695Z,41.35
2023-02-19T17:31:39.821Z,41.09
2023-02-19T17:34:33.830Z,41.21
2023-02-19T17:37:27.678Z,40.06
2023-02-19T17:40:33.075Z,40.25
2023-02-19T17:43:27.029Z,40.84
2023-02-19T17:46:22.748Z,40.97
2023-02-19T17:49:16.761Z,40.83
2023-02-19T17:52:10.714Z,40.45
2023-02-19T17:55:04.406Z,40.86
2023-02-19T17:57:58.459Z,40.86
2023-02-19T18:00:52.569Z,40.47
2023-02-19T18:03:46.562Z,40.04
2023-02-19T18:06:40.212Z,40.90
2023-02-19T18:09:34.154Z,40.43
2023-02-19T18:12:29.002Z,40.01
2023-02-19T18:15:26.769Z,40.25
2023-02-19T18:18:21.630Z,40.56
2023-02-19T18:21:16.407Z,40.60
2023-02-19T18:24:11.525Z,40.67
2023-02-19T18:27:05.664Z,41.17
2023-02-19T18:29:59.865Z,41.21
2023-02-19T18:32:54.213Z,41.19
2023-02-19T18:35:50.448Z,41.38
2023-02-19T18:38:44.856Z,41.08
2023-02-19T18:41:38.607Z,41.13
2023-02-19T18:44:32.389Z,40.76
2023-02-19T18:47:27.489Z,41.14
2023-02-19T18:50:22.236Z,41.00
2023-02-19T18:53:15.902Z,41.08
2023-02-19T18:56:10.555Z,40.81
2023-02-19T18:59:04.299Z,40.94
2023-02-19T19:01:58.555Z,40.91
2023-02-19T19:04:56.186Z,40.89
2023-02-19T19:07:48.451Z,40.32
2023-02-19T19:10:42.510Z,40.86
2023-02-19T19:13:36.191Z,40.33
2023-02-19T19:16:31.805Z,39.64
2023-02-19T19:19:25.761Z,40.41
2023-02-19T19:22:22.751Z,40.55
2023-02-19T19:25:16.721Z,40.51
2023-02-19T19:28:10.803Z,40.62
2023-02-19T19:31:05.729Z,40.64
2023-02-19T19:33:59.767Z,40.51
2023-02-19T19:36:54.393Z,40.05
2023-02-19T19:39:49.690Z,40.15
2023-02-19T19:42:35.627Z,39.82
2023-02-19T19:45:29.961Z,40.51
2023-02-19T19:48:26.469Z,40.16
2023-02-19T19:51:21.556Z,40.66
2023-02-19T19:54:16.404Z,40.57
2023-02-19T19:57:10.985Z,40.39
2023-02-19T20:00:06.112Z,39.97
2023-02-19T20:03:00.599Z,39.94
2023-02-19T20:05:54.997Z,40.10
2023-02-19T20:08:49.951Z,39.98
2023-02-19T20:11:51.038Z,39.88
2023-02-19T20:14:47.972Z,39.19
2023-02-19T20:17:41.870Z,39.60
2023-02-19T20:20:35.881Z,40.21
2023-02-19T20:23:29.585Z,39.54
2023-02-19T20:26:32.374Z,39.54
2023-02-19T20:29:26.136Z,39.69
2023-02-19T20:32:20.433Z,39.98
2023-02-19T20:35:16.134Z,39.06
2023-02-19T20:38:10.038Z,39.46
2023-02-19T20:41:03.979Z,39.05
2023-02-19T20:43:58.256Z,39.07
2023-02-19T20:46:54.339Z,39.30
2023-02-19T20:49:51.605Z,39.79
2023-02-19T20:52:45.700Z,39.84
2023-02-19T20:55:39.861Z,39.75
2023-02-19T20:58:33.547Z,39.22
2023-02-19T21:01:30.958Z,39.11
2023-02-19T21:04:24.838Z,39.40
2023-02-19T21:07:19.836Z,39.71
2023-02-19T21:10:15.127Z,40.32
2023-02-19T21:13:08.806Z,38.99
2023-02-19T21:16:02.662Z,39.49
2023-02-19T21:18:56.549Z,39.73
2023-02-19T21:21:50.447Z,39.77
2023-02-19T21:24:44.706Z,39.92
2023-02-19T21:27:38.798Z,39.77
2023-02-19T21:30:32.550Z,40.00
2023-02-19T21:33:26.430Z,39.85
2023-02-19T21:36:21.993Z,39.93
2023-02-19T21:39:19.410Z,39.85
2023-02-19T21:42:16.541Z,39.81
2023-02-19T21:45:11.700Z,39.87
2023-02-19T21:48:05.648Z,39.94
2023-02-19T21:51:00.218Z,39.77
2023-02-19T21:53:54.495Z,39.87
2023-02-19T21:56:48.596Z,39.83
2023-02-19T21:59:42.467Z,39.78
2023-02-19T22:02:36.861Z,39.55
2023-02-19T22:05:32.012Z,39.62
2023-02-19T22:08:25.951Z,39.77
2023-02-19T22:11:19.785Z,39.73
2023-02-19T22:14:13.671Z,39.97
2023-02-19T22:17:07.709Z,39.76
2023-02-19T22:20:01.507Z,39.67
2023-02-19T22:22:55.248Z,39.70
2023-02-19T22:25:49.785Z,39.69
2023-02-19T22:28:44.245Z,39.68
2023-02-19T22:31:38.593Z,39.64
2023-02-19T22:34:32.728Z,39.75
2023-02-19T22:37:26.515Z,39.67
2023-02-19T22:40:20.298Z,39.77
2023-02-19T22:43:19.779Z,39.65
2023-02-19T22:46:16.683Z,39.59
2023-02-19T22:49:10.695Z,39.63
2023-02-19T22:52:08.023Z,39.58
2023-02-19T22:55:02.080Z,39.51
2023-02-19T22:57:56.462Z,39.60
2023-02-19T23:00:50.179Z,39.61
2023-02-19T23:03:52.824Z,39.58
2023-02-19T23:06:47.599Z,39.64
2023-02-19T23:09:41.615Z,39.54
2023-02-19T23:12:37.489Z,39.55
2023-02-19T23:15:31.272Z,39.55
2023-02-19T23:18:25.228Z,39.63
2023-02-19T23:21:21.161Z,39.45
2023-02-19T23:24:15.675Z,39.30
2023-02-19T23:27:10.484Z,39.51
2023-02-19T23:30:04.434Z,39.38
2023-02-19T23:32:58.326Z,39.46
2023-02-19T23:35:52.307Z,39.33
2023-02-19T23:38:48.456Z,39.42
2023-02-19T23:41:52.363Z,39.38
2023-02-19T23:44:48.521Z,39.40
2023-02-19T23:47:42.517Z,39.31
2023-02-19T23:50:36.259Z,39.45
2023-02-19T23:53:30.073Z,39.40
2023-02-19T23:56:29.208Z,39.42
2023-02-19T23:59:23.944Z,39.41
